This demonstration page uses our WeatherBlox Daily Observations layout. Learn more.

36.17497, -115.13722

Hourly Observations for September 17, 2018

Temp ( °F °C ) Dew Point ( °F °C ) Humidity (%) Winds ( mph kmh ) Pressure ( in mb ) Visibility ( mi km ) Precip ( " mm )
12:53 am 00:53 Clear 84 28.9 39 3.9 20 20 WSW 5 7 29.8 1009 10 16.09344 0 0
1:53 am 01:53 Clear 82 27.8 38 3.3 21 21 Calm 29.8 1009 10 16.09344 0 0
2:53 am 02:53 Clear 79 26.1 37 2.8 22 22 SE 6 9 29.8 1009 10 16.09344 0 0
3:53 am 03:53 Clear 77 25 39 3.9 26 26 Calm 29.8 1009 10 16.09344 0 0
4:53 am 04:53 Clear 74 23.3 40 4.4 29 29 NNW 3 6 29.8 1009 10 16.09344 0 0
5:53 am 05:53 Clear 73 22.8 38 3.3 28 28 N 6 9 29.83 1010 10 16.09344 0 0
6:53 am 06:53 Sunny 72 22.2 39 3.9 30 30 Calm 29.85 1011 10 16.09344 0 0
7:53 am 07:53 Sunny 77 25 38 3.3 24 24 N 3 6 29.85 1011 10 16.09344 0 0
8:53 am 08:53 Sunny 81 27.2 35 1.7 19 19 Calm 29.85 1011 10 16.09344 0 0
9:53 am 09:53 Sunny 85 29.4 34 1.1 16 16 SSW 5 7 29.85 1011 10 16.09344 0 0
10:53 am 10:53 Sunny 91 32.8 31 -0.6 12 12 SSE 10 17 29.85 1011 10 16.09344 0 0
11:53 am 11:53 Sunny 94 34.4 31 -0.6 11 11 S 13 20 29.83 1010 10 16.09344 0 0
12:53 pm 12:53 Sunny 97 36.1 31 -0.6 10 10 S 17 28 29.8 1009 10 16.09344 0 0
1:53 pm 13:53 Sunny 98 36.7 30 -1.1 9 9 SW 18 30 29.77 1008 10 16.09344 0 0
2:53 pm 14:53 Sunny 99 37.2 29 -1.7 8 8 SSW 13 20 29.74 1007 10 16.09344 0 0
3:53 pm 15:53 Sunny 99 37.2 27 -2.8 8 8 SSW 16 26 29.74 1007 10 16.09344 0 0
4:53 pm 16:53 Sunny 98 36.7 26 -3.3 8 8 SSW 15 24 29.74 1007 10 16.09344 0 0
5:53 pm 17:53 Sunny 97 36.1 14 -10 5 5 W 13 20 29.74 1007 10 16.09344 0 0
6:53 pm 18:53 Clear 94 34.4 8 -13.3 4 4 WSW 13 20 29.74 1007 10 16.09344 0 0
7:53 pm 19:53 Clear 91 32.8 11 -11.7 5 5 WSW 7 11 29.74 1007 10 16.09344 0 0
8:53 pm 20:53 Clear 88 31.1 14 -10 6 6 SW 8 13 29.74 1007 10 16.09344 0 0
9:53 pm 21:53 Clear 84 28.9 17 -8.3 8 8 S 7 11 29.77 1008 10 16.09344 0 0
10:53 pm 22:53 Clear 84 28.9 21 -6.1 10 10 S 12 19 29.77 1008 10 16.09344 0 0
11:53 pm 23:53 Clear 81 27.2 18 -7.8 9 9 W 7 11 29.77 1008 10 16.09344 0 0

Powered by AerisWeather